createdAt,value
2022-08-26T00:00:31.183Z,83.69
2022-08-26T00:01:31.175Z,83.09
2022-08-26T00:02:31.197Z,81.59
2022-08-26T00:03:31.135Z,82.18
2022-08-26T00:04:31.115Z,81.99
2022-08-26T00:05:31.128Z,84.29
2022-08-26T00:06:31.093Z,84.09
2022-08-26T00:07:31.106Z,83.09
2022-08-26T00:08:31.066Z,83.99
2022-08-26T00:09:31.055Z,82.43
2022-08-26T00:10:31.043Z,82.43
2022-08-26T00:11:31.037Z,81.42
2022-08-26T00:12:36.164Z,82.12
2022-08-26T00:13:32.004Z,80.92
2022-08-26T00:14:31.609Z,80.72
2022-08-26T00:15:30.978Z,81.73
2022-08-26T00:16:31.022Z,82.43
2022-08-26T00:17:30.965Z,82.82
2022-08-26T00:18:30.956Z,83.93
2022-08-26T00:19:31.934Z,83.23
2022-08-26T00:20:30.909Z,82.12
2022-08-26T00:21:30.901Z,82.32
2022-08-26T00:22:30.886Z,81.82
2022-08-26T00:23:30.867Z,80.82
2022-08-26T00:24:30.854Z,82.43
2022-08-26T00:25:30.846Z,82.63
2022-08-26T00:26:30.841Z,83.43
2022-08-26T00:27:30.825Z,81.96
2022-08-26T00:28:30.808Z,82.37
2022-08-26T00:29:31.939Z,82.57
2022-08-26T00:30:31.775Z,82.26
2022-08-26T00:31:31.210Z,81.26
2022-08-26T00:32:30.762Z,83.47
2022-08-26T00:33:30.736Z,83.47
2022-08-26T00:34:30.718Z,85.08
2022-08-26T00:35:30.710Z,86.38
2022-08-26T00:36:30.687Z,87.78
2022-08-26T00:37:30.694Z,88.68
2022-08-26T00:38:30.665Z,88.89
2022-08-26T00:39:30.655Z,89.49
2022-08-26T00:40:30.718Z,89.49
2022-08-26T00:41:30.645Z,89.99
2022-08-26T00:42:30.624Z,88.68
2022-08-26T00:43:30.610Z,88.79
2022-08-26T00:44:31.590Z,88.53
2022-08-26T00:45:30.622Z,86.72
2022-08-26T00:46:30.556Z,84.61
2022-08-26T00:47:31.035Z,83.41
2022-08-26T00:48:31.777Z,82.10
2022-08-26T00:49:30.518Z,81.20
2022-08-26T00:50:30.518Z,80.30
2022-08-26T00:51:30.504Z,80.10
2022-08-26T00:52:30.487Z,80.40
2022-08-26T00:53:30.476Z,80.40
2022-08-26T00:54:30.450Z,81.40
2022-08-26T00:55:38.024Z,82.10
2022-08-26T00:56:31.443Z,83.31
2022-08-26T00:57:30.428Z,83.41
2022-08-26T00:58:30.403Z,83.91
2022-08-26T00:59:33.036Z,84.41
2022-08-26T01:00:30.368Z,84.81
2022-08-26T01:01:30.387Z,82.51
2022-08-26T01:02:30.375Z,81.70
2022-08-26T01:03:30.329Z,82.40
2022-08-26T01:04:30.333Z,82.40
2022-08-26T01:05:30.309Z,81.60
2022-08-26T01:06:30.297Z,81.50
2022-08-26T01:07:31.175Z,79.80
2022-08-26T01:08:30.272Z,81.10
2022-08-26T01:09:30.258Z,81.50
2022-08-26T01:10:30.257Z,82.70
2022-08-26T01:11:30.258Z,83.31
2022-08-26T01:12:30.212Z,82.70
2022-08-26T01:13:30.216Z,81.20
2022-08-26T01:14:30.190Z,81.10
2022-08-26T01:15:30.179Z,80.63
2022-08-26T01:16:30.258Z,80.54
2022-08-26T01:17:30.149Z,82.24
2022-08-26T01:18:30.132Z,81.94
2022-08-26T01:19:30.120Z,81.84
2022-08-26T01:20:30.110Z,80.63
2022-08-26T01:21:30.177Z,81.94
2022-08-26T01:22:30.079Z,81.54
2022-08-26T01:23:30.067Z,83.25
2022-08-26T01:24:30.051Z,82.95
2022-08-26T01:25:30.051Z,81.64
2022-08-26T01:26:30.055Z,80.83
2022-08-26T01:27:30.018Z,81.14
2022-08-26T01:28:30.016Z,80.74
2022-08-26T01:29:30.003Z,81.44
2022-08-26T01:30:29.994Z,79.53
2022-08-26T01:31:30.082Z,79.73
2022-08-26T01:32:29.951Z,80.83
2022-08-26T01:33:29.946Z,81.64
2022-08-26T01:34:30.924Z,81.74
2022-08-26T01:35:29.912Z,82.54
2022-08-26T01:36:29.911Z,82.45
2022-08-26T01:37:29.892Z,82.45
2022-08-26T01:38:31.640Z,81.94
2022-08-26T01:39:29.862Z,81.34
2022-08-26T01:40:29.866Z,82.84
2022-08-26T01:41:29.839Z,82.24
2022-08-26T01:42:29.811Z,83.59
2022-08-26T01:43:29.814Z,82.38
2022-08-26T01:44:29.802Z,81.27
2022-08-26T01:45:29.804Z,82.28
2022-08-26T01:46:29.759Z,82.89
2022-08-26T01:47:30.052Z,81.58
2022-08-26T01:48:29.751Z,82.68
2022-08-26T01:49:29.723Z,80.88
2022-08-26T01:50:30.228Z,82.58
2022-08-26T01:51:29.701Z,81.98
2022-08-26T01:52:29.697Z,82.08
2022-08-26T01:53:29.670Z,82.28
2022-08-26T01:54:29.657Z,83.09
2022-08-26T01:55:33.167Z,82.38
2022-08-26T01:56:33.074Z,81.27
2022-08-26T01:57:29.624Z,80.98
2022-08-26T01:58:29.600Z,80.47
2022-08-26T01:59:29.601Z,81.48
2022-08-26T02:00:29.595Z,81.18
2022-08-26T02:01:29.560Z,80.27
2022-08-26T02:02:29.558Z,80.07
2022-08-26T02:03:29.577Z,80.88
2022-08-26T02:04:29.578Z,81.78
2022-08-26T02:05:29.531Z,83.09
2022-08-26T02:06:29.495Z,85.30
2022-08-26T02:07:29.488Z,83.09
2022-08-26T02:08:29.498Z,84.19
2022-08-26T02:09:29.460Z,82.72
2022-08-26T02:10:29.459Z,81.21
2022-08-26T02:11:29.443Z,80.01
2022-08-26T02:12:29.412Z,79.21
2022-08-26T02:13:29.413Z,78.80
2022-08-26T02:14:29.385Z,78.90
2022-08-26T02:15:29.407Z,79.10
2022-08-26T02:16:29.400Z,79.50
2022-08-26T02:17:29.360Z,80.41
2022-08-26T02:18:29.345Z,79.91
2022-08-26T02:19:29.334Z,80.21
2022-08-26T02:20:29.325Z,79.00
2022-08-26T02:21:29.298Z,78.20
2022-08-26T02:22:29.310Z,79.10
2022-08-26T02:23:29.274Z,78.60
2022-08-26T02:24:29.267Z,78.80
2022-08-26T02:25:29.252Z,80.21
2022-08-26T02:26:29.232Z,80.31
2022-08-26T02:27:30.326Z,80.31
2022-08-26T02:28:29.210Z,79.41
2022-08-26T02:29:29.191Z,79.10
2022-08-26T02:30:29.190Z,79.41
2022-08-26T02:31:29.210Z,79.50
2022-08-26T02:32:29.165Z,79.71
2022-08-26T02:33:29.131Z,80.51
2022-08-26T02:34:31.314Z,82.02
2022-08-26T02:35:29.126Z,81.01
2022-08-26T02:36:29.101Z,79.81
2022-08-26T02:37:29.095Z,79.50
2022-08-26T02:38:29.074Z,82.22
2022-08-26T02:39:29.066Z,83.12
2022-08-26T02:40:29.086Z,84.13
2022-08-26T02:41:29.031Z,83.03
2022-08-26T02:42:29.023Z,82.56
2022-08-26T02:43:32.886Z,83.47
2022-08-26T02:44:29.013Z,83.26
2022-08-26T02:45:28.984Z,82.46
2022-08-26T02:46:30.094Z,81.15
2022-08-26T02:47:29.239Z,80.65
2022-08-26T02:48:28.941Z,82.76
2022-08-26T02:49:28.941Z,84.17
2022-08-26T02:50:28.918Z,83.97
2022-08-26T02:51:28.894Z,82.66
2022-08-26T02:52:28.887Z,81.65
2022-08-26T02:53:28.871Z,80.75
2022-08-26T02:54:28.873Z,80.85
2022-08-26T02:55:28.846Z,84.07
2022-08-26T02:56:28.849Z,85.17
2022-08-26T02:57:28.842Z,85.68
2022-08-26T02:58:28.812Z,83.57
2022-08-26T02:59:28.812Z,81.85
2022-08-26T03:00:28.880Z,80.25
2022-08-26T03:01:28.793Z,78.94
2022-08-26T03:02:28.770Z,78.14
2022-08-26T03:03:28.741Z,79.24
2022-08-26T03:04:28.743Z,80.75
2022-08-26T03:05:28.712Z,79.54
2022-08-26T03:06:28.703Z,79.94
2022-08-26T03:07:28.684Z,82.66
2022-08-26T03:08:28.675Z,86.79
2022-08-26T03:09:28.671Z,87.69
2022-08-26T03:10:28.652Z,89.00
2022-08-26T03:11:32.970Z,89.40
2022-08-26T03:12:28.623Z,88.70
2022-08-26T03:13:28.603Z,88.09
2022-08-26T03:14:28.604Z,87.02
2022-08-26T03:15:28.584Z,85.11
2022-08-26T03:16:32.347Z,85.72
2022-08-26T03:17:28.555Z,83.91
2022-08-26T03:18:28.546Z,86.43
2022-08-26T03:19:28.533Z,88.74
2022-08-26T03:20:28.521Z,89.75
2022-08-26T03:21:28.503Z,90.55
2022-08-26T03:22:28.495Z,91.05
2022-08-26T03:23:28.475Z,90.65
2022-08-26T03:24:28.485Z,90.65
2022-08-26T03:25:28.445Z,91.25
2022-08-26T03:26:28.448Z,91.96
2022-08-26T03:27:28.422Z,92.46
2022-08-26T03:28:28.419Z,92.36
2022-08-26T03:29:28.416Z,91.35
2022-08-26T03:30:28.384Z,89.48
2022-08-26T03:31:28.392Z,88.38
2022-08-26T03:32:28.355Z,87.47
2022-08-26T03:33:28.345Z,86.16
2022-08-26T03:34:28.349Z,84.75
2022-08-26T03:35:28.314Z,84.35
2022-08-26T03:36:28.304Z,85.46
2022-08-26T03:37:28.284Z,85.36
2022-08-26T03:38:28.274Z,84.95
2022-08-26T03:39:28.275Z,84.35
2022-08-26T03:40:29.014Z,82.84
2022-08-26T03:41:28.246Z,82.84
2022-08-26T03:42:28.224Z,82.94
2022-08-26T03:43:28.206Z,82.84
2022-08-26T03:44:28.210Z,82.64
2022-08-26T03:45:28.186Z,82.04
2022-08-26T03:46:28.232Z,84.25
2022-08-26T03:47:28.156Z,85.56
2022-08-26T03:48:28.149Z,87.07
2022-08-26T03:49:28.918Z,87.17
2022-08-26T03:50:28.123Z,86.77
2022-08-26T03:51:28.107Z,85.96
2022-08-26T03:52:28.101Z,85.36
2022-08-26T03:53:28.080Z,85.46
2022-08-26T03:54:28.075Z,84.45
2022-08-26T03:55:28.043Z,84.05
2022-08-26T03:56:28.045Z,84.05
2022-08-26T03:57:28.034Z,82.94
2022-08-26T03:58:28.034Z,82.14
2022-08-26T03:59:28.006Z,83.04
2022-08-26T04:00:27.984Z,81.93
2022-08-26T04:01:28.031Z,81.03
2022-08-26T04:02:27.990Z,82.04
2022-08-26T04:03:27.976Z,81.84
2022-08-26T04:04:27.952Z,81.93
2022-08-26T04:05:27.917Z,81.84
2022-08-26T04:06:27.908Z,81.73
2022-08-26T04:07:27.890Z,81.73
2022-08-26T04:08:28.038Z,81.23
2022-08-26T04:09:27.873Z,82.74
2022-08-26T04:10:29.316Z,81.84
2022-08-26T04:11:27.833Z,81.17
2022-08-26T04:12:27.824Z,80.26
2022-08-26T04:13:27.805Z,79.76
2022-08-26T04:14:27.815Z,83.14
2022-08-26T04:15:27.787Z,81.84
2022-08-26T04:16:27.818Z,80.46
2022-08-26T04:17:27.754Z,79.96
2022-08-26T04:18:31.382Z,81.43
2022-08-26T04:19:28.754Z,81.73
2022-08-26T04:20:27.730Z,81.73
2022-08-26T04:21:27.704Z,85.96
2022-08-26T04:22:27.694Z,88.78
2022-08-26T04:23:27.680Z,87.37
2022-08-26T04:24:27.899Z,86.46
2022-08-26T04:25:27.647Z,87.98
2022-08-26T04:26:27.643Z,87.98
2022-08-26T04:27:27.626Z,86.46
2022-08-26T04:28:27.613Z,85.46
2022-08-26T04:29:27.606Z,83.95
2022-08-26T04:30:27.601Z,83.14
2022-08-26T04:31:27.600Z,83.04
2022-08-26T04:32:27.555Z,82.74
2022-08-26T04:33:32.271Z,80.83
2022-08-26T04:34:28.951Z,80.12
2022-08-26T04:35:27.524Z,79.92
2022-08-26T04:36:27.518Z,79.11
2022-08-26T04:37:27.494Z,78.21
2022-08-26T04:38:27.494Z,77.70
2022-08-26T04:39:27.787Z,77.50
2022-08-26T04:40:27.625Z,77.20
2022-08-26T04:41:27.437Z,77.11
2022-08-26T04:42:27.425Z,78.47
2022-08-26T04:43:27.427Z,78.07
2022-08-26T04:44:27.396Z,77.67
2022-08-26T04:45:27.388Z,77.07
2022-08-26T04:46:27.443Z,76.46
2022-08-26T04:47:32.124Z,76.26
2022-08-26T04:48:28.365Z,76.26
2022-08-26T04:49:27.511Z,76.26
2022-08-26T04:50:27.323Z,76.53
2022-08-26T04:51:27.349Z,76.32
2022-08-26T04:52:27.307Z,76.53
2022-08-26T04:53:27.285Z,77.13
2022-08-26T04:54:27.269Z,79.24
2022-08-26T04:55:38.680Z,80.85
2022-08-26T04:56:28.235Z,81.92
2022-08-26T04:57:27.216Z,85.33
2022-08-26T04:58:27.235Z,84.03
2022-08-26T04:59:27.195Z,82.92
2022-08-26T05:00:27.191Z,81.82
2022-08-26T05:01:27.198Z,80.01
2022-08-26T05:02:27.158Z,79.10
2022-08-26T05:03:27.184Z,77.86
2022-08-26T05:04:27.163Z,78.77
2022-08-26T05:05:27.118Z,82.68
2022-08-26T05:06:27.106Z,83.59
2022-08-26T05:07:27.095Z,83.75
2022-08-26T05:08:27.087Z,84.35
2022-08-26T05:09:27.064Z,84.35
2022-08-26T05:10:27.055Z,85.05
2022-08-26T05:11:27.058Z,84.45
2022-08-26T05:12:27.035Z,83.91
2022-08-26T05:13:27.026Z,83.31
2022-08-26T05:14:27.009Z,82.90
2022-08-26T05:15:26.987Z,82.20
2022-08-26T05:16:27.012Z,81.87
2022-08-26T05:17:26.957Z,81.87
2022-08-26T05:18:26.968Z,85.13
2022-08-26T05:19:27.994Z,86.74
2022-08-26T05:20:26.925Z,85.39
2022-08-26T05:21:27.064Z,84.75
2022-08-26T05:22:26.899Z,84.41
2022-08-26T05:23:26.897Z,83.07
2022-08-26T05:24:26.870Z,82.33
2022-08-26T05:25:27.457Z,82.19
2022-08-26T05:26:26.857Z,81.56
2022-08-26T05:27:26.828Z,80.82
2022-08-26T05:28:26.832Z,80.27
2022-08-26T05:29:26.796Z,79.74
2022-08-26T05:30:26.788Z,79.40
2022-08-26T05:31:26.851Z,78.67
2022-08-26T05:32:26.865Z,77.73
2022-08-26T05:33:27.902Z,77.69
2022-08-26T05:34:30.095Z,77.56
2022-08-26T05:35:26.727Z,76.62
2022-08-26T05:36:26.969Z,75.40
2022-08-26T05:37:26.696Z,74.96
2022-08-26T05:38:30.330Z,74.23
2022-08-26T05:39:26.658Z,73.33
2022-08-26T05:40:26.732Z,73.00
2022-08-26T05:41:26.653Z,72.50
2022-08-26T05:42:27.641Z,71.58
2022-08-26T05:43:26.629Z,70.52
2022-08-26T05:44:26.609Z,69.53
2022-08-26T05:45:26.580Z,69.62
2022-08-26T05:46:26.598Z,71.05
2022-08-26T05:47:26.566Z,71.84
2022-08-26T05:48:26.557Z,71.05
2022-08-26T05:49:26.668Z,72.44
2022-08-26T05:50:26.521Z,72.44
2022-08-26T05:51:26.511Z,71.34
2022-08-26T05:52:26.498Z,72.38
2022-08-26T05:53:26.489Z,72.77
2022-08-26T05:54:26.481Z,72.38
2022-08-26T05:55:26.450Z,72.67
2022-08-26T05:56:26.456Z,72.87
2022-08-26T05:57:26.431Z,73.67
2022-08-26T05:58:26.747Z,72.17
2022-08-26T05:59:26.401Z,72.77
2022-08-26T06:00:26.390Z,71.88
2022-08-26T06:01:26.485Z,72.67
2022-08-26T06:02:26.428Z,72.24
2022-08-26T06:03:26.365Z,71.94
2022-08-26T06:04:27.849Z,71.22
2022-08-26T06:05:26.322Z,70.88
2022-08-26T06:06:29.152Z,70.78
2022-08-26T06:07:26.300Z,70.55
2022-08-26T06:08:26.303Z,69.82
2022-08-26T06:09:26.260Z,68.99
2022-08-26T06:10:32.654Z,67.97
2022-08-26T06:11:27.240Z,67.44
2022-08-26T06:12:26.244Z,65.99
2022-08-26T06:13:26.242Z,65.47
2022-08-26T06:14:26.209Z,64.64
2022-08-26T06:15:26.191Z,64.51
2022-08-26T06:16:26.245Z,63.17
2022-08-26T06:17:26.163Z,62.15
2022-08-26T06:18:26.161Z,61.24
2022-08-26T06:19:26.130Z,60.81
2022-08-26T06:20:27.124Z,60.19
2022-08-26T06:21:26.118Z,59.17
2022-08-26T06:22:26.101Z,58.36
2022-08-26T06:23:26.091Z,58.65
2022-08-26T06:24:27.157Z,59.31
2022-08-26T06:25:26.063Z,58.11
2022-08-26T06:26:26.051Z,57.56
2022-08-26T06:27:30.593Z,57.63
2022-08-26T06:28:27.048Z,56.23
2022-08-26T06:29:26.010Z,54.83
2022-08-26T06:30:26.050Z,54.80
2022-08-26T06:31:26.023Z,53.59
2022-08-26T06:32:25.974Z,53.59
2022-08-26T06:33:25.973Z,53.86
2022-08-26T06:34:26.728Z,53.06
2022-08-26T06:35:25.932Z,52.34
2022-08-26T06:36:25.923Z,51.25
2022-08-26T06:37:25.903Z,51.03
2022-08-26T06:38:25.914Z,50.63
2022-08-26T06:39:25.887Z,51.00
2022-08-26T06:40:26.017Z,51.00
2022-08-26T06:41:25.931Z,50.49
2022-08-26T06:42:25.869Z,50.46
2022-08-26T06:43:25.849Z,49.58
2022-08-26T06:44:25.832Z,49.95
2022-08-26T06:45:25.805Z,47.71
2022-08-26T06:46:25.926Z,48.75
2022-08-26T06:47:25.791Z,49.22
2022-08-26T06:48:25.791Z,48.34
2022-08-26T06:49:27.454Z,47.63
2022-08-26T06:50:25.735Z,47.03
2022-08-26T06:51:25.728Z,46.25
2022-08-26T06:52:25.717Z,46.03
2022-08-26T06:53:25.717Z,45.54
2022-08-26T06:54:25.699Z,45.72
2022-08-26T06:55:26.809Z,44.45
2022-08-26T06:56:25.660Z,45.14
2022-08-26T06:57:25.677Z,44.84
2022-08-26T06:58:25.647Z,44.16
2022-08-26T06:59:25.641Z,44.43
2022-08-26T07:00:25.637Z,45.04
2022-08-26T07:01:25.639Z,44.43
2022-08-26T07:02:28.441Z,45.60
2022-08-26T07:03:25.604Z,43.92
2022-08-26T07:04:27.793Z,43.61
2022-08-26T07:05:25.571Z,44.07
2022-08-26T07:06:25.530Z,43.37
2022-08-26T07:07:26.075Z,42.86
2022-08-26T07:08:25.524Z,42.77
2022-08-26T07:09:25.505Z,42.94
2022-08-26T07:10:25.490Z,42.75
2022-08-26T07:11:25.497Z,42.63
2022-08-26T07:12:25.462Z,41.06
2022-08-26T07:13:30.482Z,41.74
2022-08-26T07:14:26.501Z,41.93
2022-08-26T07:15:31.032Z,41.74
2022-08-26T07:16:26.424Z,41.82
2022-08-26T07:17:25.403Z,40.75
2022-08-26T07:18:25.408Z,41.52
2022-08-26T07:19:30.133Z,40.44
2022-08-26T07:20:26.354Z,40.92
2022-08-26T07:21:25.375Z,40.36
2022-08-26T07:22:25.381Z,40.94
2022-08-26T07:23:25.351Z,39.86
2022-08-26T07:24:28.417Z,40.83
2022-08-26T07:25:25.350Z,40.81
2022-08-26T07:26:25.286Z,39.72
2022-08-26T07:27:25.309Z,40.01
2022-08-26T07:28:25.284Z,40.01
2022-08-26T07:29:25.245Z,38.18
2022-08-26T07:30:25.246Z,38.93
2022-08-26T07:32:21.050Z,40.19
2022-08-26T07:33:21.042Z,38.81
2022-08-26T07:34:21.034Z,39.39
2022-08-26T07:35:21.053Z,38.51
2022-08-26T07:36:21.004Z,38.31
2022-08-26T07:37:21.015Z,38.49
2022-08-26T07:38:20.989Z,36.55
2022-08-26T07:39:20.983Z,38.20
2022-08-26T07:40:21.066Z,38.20
2022-08-26T07:41:20.976Z,38.18
2022-08-26T07:42:20.937Z,37.50
2022-08-26T07:43:20.938Z,36.55
2022-08-26T07:44:20.914Z,37.04
2022-08-26T07:45:20.913Z,37.23
2022-08-26T07:46:27.041Z,36.19
2022-08-26T07:47:24.860Z,37.63
2022-08-26T07:48:25.766Z,36.96
2022-08-26T07:49:20.971Z,38.04
2022-08-26T07:50:20.897Z,38.06
2022-08-26T07:51:21.827Z,39.39
2022-08-26T07:52:25.537Z,39.59
2022-08-26T07:53:21.829Z,39.01
2022-08-26T07:54:20.788Z,38.53
2022-08-26T07:55:21.799Z,37.95
2022-08-26T07:56:20.788Z,37.95
2022-08-26T07:57:20.769Z,38.14
2022-08-26T07:58:20.749Z,38.25
2022-08-26T07:59:20.748Z,38.06
2022-08-26T08:00:20.803Z,39.53
2022-08-26T08:01:20.800Z,38.66
2022-08-26T08:02:20.701Z,38.18
2022-08-26T08:03:20.706Z,38.46
2022-08-26T08:04:26.169Z,39.16
2022-08-26T08:05:21.851Z,39.36
2022-08-26T08:06:20.653Z,39.84
2022-08-26T08:07:20.646Z,39.18
2022-08-26T08:08:26.533Z,38.87
2022-08-26T08:09:22.422Z,39.94
2022-08-26T08:10:20.864Z,38.68
2022-08-26T08:11:20.600Z,38.89
2022-08-26T08:12:20.590Z,39.01
2022-08-26T08:13:20.581Z,39.53
2022-08-26T08:14:22.241Z,40.33
2022-08-26T08:15:20.634Z,40.92
2022-08-26T08:16:20.651Z,41.12
2022-08-26T08:17:20.530Z,40.64
2022-08-26T08:18:20.770Z,40.73
2022-08-26T08:19:20.517Z,41.22
2022-08-26T08:20:20.482Z,40.42
2022-08-26T08:21:22.010Z,41.10
2022-08-26T08:22:20.462Z,40.99
2022-08-26T08:23:20.505Z,40.38
2022-08-26T08:24:20.463Z,39.78
2022-08-26T08:25:20.433Z,39.88
2022-08-26T08:26:20.424Z,40.05
2022-08-26T08:27:23.666Z,40.13
2022-08-26T08:28:20.406Z,40.81
2022-08-26T08:29:20.387Z,39.36
2022-08-26T08:30:22.648Z,38.76
2022-08-26T08:31:38.529Z,38.29
2022-08-26T08:32:21.365Z,39.16
2022-08-26T08:33:20.345Z,39.94
2022-08-26T08:34:21.451Z,38.87
2022-08-26T08:35:20.325Z,39.16
2022-08-26T08:36:20.533Z,38.78
2022-08-26T08:37:20.305Z,39.45
2022-08-26T08:38:20.308Z,39.62
2022-08-26T08:39:20.291Z,39.32
2022-08-26T08:40:20.431Z,38.74
2022-08-26T08:41:20.257Z,37.67
2022-08-26T08:42:20.248Z,38.74
2022-08-26T08:43:20.231Z,38.37
2022-08-26T08:44:20.283Z,38.85
2022-08-26T08:45:20.209Z,38.28
2022-08-26T08:46:20.275Z,38.87
2022-08-26T08:47:20.745Z,39.34
2022-08-26T08:48:20.163Z,38.76
2022-08-26T08:49:20.168Z,38.54
2022-08-26T08:50:20.139Z,38.54
2022-08-26T08:51:20.147Z,37.58
2022-08-26T08:52:20.148Z,38.08
2022-08-26T08:53:20.122Z,38.39
2022-08-26T08:54:21.983Z,38.58
2022-08-26T08:55:20.092Z,39.45
2022-08-26T08:56:20.068Z,39.74
2022-08-26T08:57:20.090Z,38.78
2022-08-26T08:58:20.039Z,39.47
2022-08-26T08:59:20.047Z,39.09
2022-08-26T09:00:20.029Z,39.18
2022-08-26T09:01:21.074Z,39.47
2022-08-26T09:02:20.073Z,39.49
2022-08-26T09:03:19.990Z,39.51
2022-08-26T09:04:19.972Z,40.19
2022-08-26T09:05:19.988Z,39.80
2022-08-26T09:06:19.982Z,40.56
2022-08-26T09:07:19.972Z,40.46
2022-08-26T09:08:20.096Z,40.07
2022-08-26T09:09:19.924Z,39.49
2022-08-26T09:10:19.904Z,39.97
2022-08-26T09:11:19.905Z,40.94
2022-08-26T09:12:19.896Z,40.26
2022-08-26T09:13:25.293Z,40.26
2022-08-26T09:14:20.852Z,39.69
2022-08-26T09:15:19.853Z,39.61
2022-08-26T09:16:20.295Z,41.08
2022-08-26T09:17:19.863Z,41.86
2022-08-26T09:18:19.805Z,41.56
2022-08-26T09:19:19.846Z,41.64
2022-08-26T09:20:19.802Z,41.55
2022-08-26T09:21:19.794Z,41.56
2022-08-26T09:22:19.831Z,41.17
2022-08-26T09:23:19.759Z,42.92
2022-08-26T09:24:19.735Z,41.76
2022-08-26T09:25:19.736Z,42.03
2022-08-26T09:26:19.717Z,42.13
2022-08-26T09:27:19.746Z,42.41
2022-08-26T09:28:19.694Z,42.22
2022-08-26T09:30:19.667Z,40.56
2022-08-26T09:31:19.730Z,41.72
2022-08-26T09:32:20.289Z,42.49
2022-08-26T09:33:19.656Z,40.36
2022-08-26T09:34:19.649Z,41.64
2022-08-26T09:35:19.614Z,41.83
2022-08-26T09:36:19.597Z,42.44
2022-08-26T09:37:19.587Z,40.99
2022-08-26T09:38:19.587Z,42.34
2022-08-26T09:39:19.555Z,41.56
2022-08-26T09:40:20.354Z,42.13
2022-08-26T09:41:19.538Z,42.22
2022-08-26T09:42:19.555Z,42.22
2022-08-26T09:43:22.771Z,41.25
2022-08-26T09:44:19.500Z,41.83
2022-08-26T09:45:19.501Z,41.45
2022-08-26T09:46:19.561Z,41.06
2022-08-26T09:47:19.478Z,42.03
2022-08-26T09:48:19.480Z,41.74
2022-08-26T09:49:19.440Z,42.51
2022-08-26T09:50:19.441Z,42.03
2022-08-26T09:51:19.452Z,41.95
2022-08-26T09:52:19.423Z,42.63
2022-08-26T09:53:20.968Z,42.05
2022-08-26T09:54:20.720Z,41.10
2022-08-26T09:55:19.379Z,42.26
2022-08-26T09:56:19.381Z,43.84
2022-08-26T09:57:19.361Z,42.77
2022-08-26T09:58:19.362Z,42.89
2022-08-26T09:59:19.313Z,43.78
2022-08-26T10:00:19.321Z,43.10
2022-08-26T10:01:19.593Z,42.91
2022-08-26T10:02:19.296Z,43.02
2022-08-26T10:03:19.269Z,44.09
2022-08-26T10:04:19.324Z,45.36
2022-08-26T10:05:19.276Z,45.65
2022-08-26T10:06:21.141Z,45.26
2022-08-26T10:07:19.264Z,45.36
2022-08-26T10:08:19.263Z,44.97
2022-08-26T10:09:19.214Z,45.17
2022-08-26T10:10:19.197Z,44.97
2022-08-26T10:11:19.185Z,44.87
2022-08-26T10:12:19.172Z,45.26
2022-08-26T10:13:19.147Z,44.68
2022-08-26T10:14:19.150Z,43.41
2022-08-26T10:15:19.159Z,45.55
2022-08-26T10:16:19.181Z,45.17
2022-08-26T10:17:19.118Z,45.84
2022-08-26T10:18:19.101Z,45.17
2022-08-26T10:19:41.674Z,44.51
2022-08-26T10:20:23.590Z,44.51
2022-08-26T10:21:19.048Z,43.26
2022-08-26T10:22:19.062Z,43.16
2022-08-26T10:23:19.032Z,43.77
2022-08-26T10:24:19.020Z,43.89
2022-08-26T10:25:19.015Z,45.94
2022-08-26T10:26:19.020Z,46.71
2022-08-26T10:27:19.002Z,46.20
2022-08-26T10:28:18.972Z,46.59
2022-08-26T10:29:18.950Z,45.42
2022-08-26T10:30:18.970Z,46.98
2022-08-26T10:31:18.947Z,46.11
2022-08-26T10:32:19.002Z,45.40
2022-08-26T10:33:18.907Z,42.99
2022-08-26T10:34:18.904Z,43.89
2022-08-26T10:35:18.903Z,45.57
2022-08-26T10:36:20.391Z,45.86
2022-08-26T10:37:18.889Z,45.57
2022-08-26T10:38:18.864Z,44.38
2022-08-26T10:39:18.835Z,44.96
2022-08-26T10:40:18.909Z,44.16
2022-08-26T10:41:18.804Z,43.65
2022-08-26T10:42:18.835Z,42.76
2022-08-26T10:43:18.839Z,42.18
2022-08-26T10:44:18.778Z,43.02
2022-08-26T10:45:18.764Z,44.38
2022-08-26T10:46:18.808Z,41.67
2022-08-26T10:47:18.756Z,43.80
2022-08-26T10:48:18.728Z,43.12
2022-08-26T10:49:18.728Z,45.55
2022-08-26T10:50:18.941Z,44.78
2022-08-26T10:51:18.705Z,44.87
2022-08-26T10:52:18.702Z,45.17
2022-08-26T10:53:18.683Z,44.48
2022-08-26T10:54:19.676Z,44.09
2022-08-26T10:55:18.650Z,42.64
2022-08-26T10:56:19.387Z,43.05
2022-08-26T10:57:18.626Z,44.51
2022-08-26T10:58:26.317Z,45.40
2022-08-26T10:59:19.593Z,42.97
2022-08-26T11:00:18.586Z,44.62
2022-08-26T11:01:22.823Z,43.77
2022-08-26T11:02:22.794Z,45.72
2022-08-26T11:03:22.381Z,43.77
2022-08-26T11:04:18.621Z,43.29
2022-08-26T11:05:18.533Z,43.60
2022-08-26T11:06:18.542Z,43.21
2022-08-26T11:07:18.490Z,43.62
2022-08-26T11:08:18.491Z,44.79
2022-08-26T11:09:18.476Z,46.44
2022-08-26T11:10:19.481Z,47.88
2022-08-26T11:11:18.453Z,46.11
2022-08-26T11:12:18.454Z,45.62
2022-08-26T11:13:18.428Z,46.30
2022-08-26T11:14:18.414Z,45.11
2022-08-26T11:15:19.402Z,46.96
2022-08-26T11:16:19.457Z,43.34
2022-08-26T11:17:18.377Z,43.44
2022-08-26T11:18:18.371Z,44.68
2022-08-26T11:19:18.372Z,44.09
2022-08-26T11:20:19.352Z,45.04
2022-08-26T11:21:18.358Z,43.01
2022-08-26T11:22:19.320Z,43.88
2022-08-26T11:23:18.313Z,42.69
2022-08-26T11:24:18.340Z,40.67
2022-08-26T11:25:18.468Z,42.43
2022-08-26T11:26:35.562Z,42.91
2022-08-26T11:27:19.257Z,39.61
2022-08-26T11:28:18.257Z,39.82
2022-08-26T11:29:18.227Z,41.77
2022-08-26T11:30:18.503Z,38.85
2022-08-26T11:31:18.252Z,42.54
2022-08-26T11:32:18.209Z,41.96
2022-08-26T11:33:18.207Z,43.90
2022-08-26T11:34:18.186Z,42.35
2022-08-26T11:35:18.156Z,38.46
2022-08-26T11:36:18.156Z,39.47
2022-08-26T11:37:18.150Z,40.64
2022-08-26T11:38:18.136Z,42.49
2022-08-26T11:39:18.115Z,42.36
2022-08-26T11:40:18.139Z,42.56
2022-08-26T11:41:18.116Z,41.98
2022-08-26T11:42:20.155Z,40.91
2022-08-26T11:43:18.080Z,40.81
2022-08-26T11:44:18.108Z,42.49
2022-08-26T11:45:18.135Z,43.19
2022-08-26T11:46:18.085Z,42.41
2022-08-26T11:47:18.018Z,42.63
2022-08-26T11:48:18.009Z,42.33
2022-08-26T11:49:17.999Z,42.16
2022-08-26T11:50:17.992Z,43.25
2022-08-26T11:51:17.959Z,43.74
2022-08-26T11:52:17.973Z,46.20
2022-08-26T11:53:17.961Z,47.36
2022-08-26T11:54:17.954Z,47.75
2022-08-26T11:55:19.211Z,45.92
2022-08-26T11:56:17.956Z,47.51
2022-08-26T11:57:17.900Z,48.32
2022-08-26T11:58:17.953Z,46.97
2022-08-26T11:59:17.909Z,47.89
2022-08-26T12:00:20.946Z,49.29
2022-08-26T12:01:17.867Z,50.29
2022-08-26T12:02:18.167Z,50.20
2022-08-26T12:03:17.870Z,48.85
2022-08-26T12:04:17.909Z,45.25
2022-08-26T12:05:17.790Z,45.95
2022-08-26T12:06:17.845Z,49.21
2022-08-26T12:07:23.733Z,45.98
2022-08-26T12:08:18.790Z,47.57
2022-08-26T12:09:17.755Z,47.27
2022-08-26T12:10:17.758Z,47.89
2022-08-26T12:11:17.724Z,49.26
2022-08-26T12:12:17.712Z,49.46
2022-08-26T12:13:17.694Z,49.08
2022-08-26T12:14:17.735Z,52.62
2022-08-26T12:15:17.677Z,53.04
2022-08-26T12:16:17.720Z,51.96
2022-08-26T12:17:17.669Z,53.06
2022-08-26T12:18:17.672Z,53.95
2022-08-26T12:19:17.644Z,52.80
2022-08-26T12:20:17.617Z,54.39
2022-08-26T12:21:17.599Z,53.81
2022-08-26T12:22:17.596Z,54.52
2022-08-26T12:23:17.588Z,55.14
2022-08-26T12:24:17.571Z,54.77
2022-08-26T12:25:17.572Z,56.57
2022-08-26T12:26:17.572Z,55.49
2022-08-26T12:27:17.520Z,55.71
2022-08-26T12:28:17.603Z,55.81
2022-08-26T12:29:19.998Z,55.64
2022-08-26T12:30:19.371Z,56.63
2022-08-26T12:31:17.607Z,57.24
2022-08-26T12:32:17.459Z,57.34
2022-08-26T12:33:22.546Z,57.45
2022-08-26T12:34:18.660Z,57.77
2022-08-26T12:35:17.420Z,58.26
2022-08-26T12:36:17.417Z,57.87
2022-08-26T12:37:18.982Z,58.16
2022-08-26T12:38:17.396Z,58.88
2022-08-26T12:39:17.386Z,59.58
2022-08-26T12:40:17.435Z,58.29
2022-08-26T12:41:17.348Z,60.36
2022-08-26T12:42:17.339Z,59.45
2022-08-26T12:43:17.332Z,57.50
2022-08-26T12:44:17.318Z,57.40
2022-08-26T12:45:17.314Z,58.39
2022-08-26T12:46:17.280Z,59.38
2022-08-26T12:47:17.267Z,59.77
2022-08-26T12:48:18.270Z,60.46
2022-08-26T12:49:18.239Z,59.97
2022-08-26T12:50:17.234Z,59.77
2022-08-26T12:51:17.223Z,58.39
2022-08-26T12:52:17.213Z,59.18
2022-08-26T12:53:17.212Z,59.28
2022-08-26T12:54:17.186Z,60.66